createdAt,value
2016-08-10T00:00:04.080Z,0
2016-08-10T00:01:05.496Z,0
2016-08-10T00:02:04.902Z,0
2016-08-10T00:03:05.559Z,0
2016-08-10T00:04:05.572Z,0
2016-08-10T00:05:07.022Z,0
2016-08-10T00:06:06.342Z,0
2016-08-10T00:07:06.329Z,0
2016-08-10T00:08:05.731Z,0
2016-08-10T00:09:06.369Z,0
2016-08-10T00:10:05.771Z,0
2016-08-10T00:11:07.142Z,0
2016-08-10T00:12:06.632Z,0
2016-08-10T00:13:07.152Z,0
2016-08-10T00:14:05.835Z,0
2016-08-10T00:15:05.797Z,0
2016-08-10T00:16:05.890Z,0
2016-08-10T00:17:06.522Z,0
2016-08-10T00:18:06.559Z,0
2016-08-10T00:19:07.281Z,0
2016-08-10T00:20:05.864Z,0
2016-08-10T00:21:06.611Z,0
2016-08-10T00:22:05.965Z,0
2016-08-10T00:23:06.702Z,0
2016-08-10T00:24:06.748Z,0
2016-08-10T00:25:05.972Z,0
2016-08-10T00:26:06.711Z,0
2016-08-10T00:27:05.322Z,0
2016-08-10T00:28:06.731Z,0
2016-08-10T00:29:06.802Z,0
2016-08-10T00:30:06.075Z,0
2016-08-10T00:31:06.117Z,0
2016-08-10T00:32:05.503Z,0
2016-08-10T00:33:06.832Z,0
2016-08-10T00:34:07.568Z,0
2016-08-10T00:35:06.892Z,0
2016-08-10T00:36:05.562Z,0
2016-08-10T00:37:06.922Z,0
2016-08-10T00:38:06.982Z,0
2016-08-10T00:39:06.248Z,0
2016-08-10T00:40:06.282Z,0
2016-08-10T00:41:06.987Z,0
2016-08-10T00:42:05.580Z,0
2016-08-10T00:43:06.395Z,0
2016-08-10T00:44:07.073Z,0
2016-08-10T00:45:06.508Z,0
2016-08-10T00:46:07.787Z,0
2016-08-10T00:47:07.290Z,0
2016-08-10T00:48:07.139Z,0
2016-08-10T00:49:06.434Z,0
2016-08-10T00:50:07.869Z,0
2016-08-10T00:51:05.825Z,0
2016-08-10T00:52:05.886Z,0
2016-08-10T00:53:06.522Z,0
2016-08-10T00:54:07.227Z,0
2016-08-10T00:55:07.272Z,0
2016-08-10T00:56:06.566Z,0
2016-08-10T00:57:06.569Z,0
2016-08-10T00:58:05.896Z,0
2016-08-10T00:59:08.039Z,0
2016-08-10T01:00:06.662Z,0
2016-08-10T01:01:07.362Z,0
2016-08-10T01:02:08.142Z,0
2016-08-10T01:03:06.699Z,0
2016-08-10T01:04:08.204Z,0
2016-08-10T01:05:06.026Z,0
2016-08-10T01:06:06.750Z,0
2016-08-10T01:07:07.471Z,0
2016-08-10T01:08:06.832Z,0
2016-08-10T01:09:07.531Z,0
2016-08-10T01:10:06.124Z,0
2016-08-10T01:11:06.889Z,0
2016-08-10T01:12:06.872Z,0
2016-08-10T01:13:05.496Z,0
2016-08-10T01:14:06.917Z,0
2016-08-10T01:15:07.076Z,0
2016-08-10T01:16:07.651Z,0
2016-08-10T01:17:06.282Z,0
2016-08-10T01:18:07.691Z,0
2016-08-10T01:19:06.270Z,0
2016-08-10T01:20:07.020Z,0
2016-08-10T01:21:08.353Z,0
2016-08-10T01:22:08.474Z,0
2016-08-10T01:23:06.370Z,0
2016-08-10T01:24:05.691Z,0
2016-08-10T01:25:07.845Z,0
2016-08-10T01:26:07.834Z,0
2016-08-10T01:27:07.863Z,0
2016-08-10T01:28:07.982Z,0
2016-08-10T01:29:07.312Z,0
2016-08-10T01:30:07.222Z,0
2016-08-10T01:31:07.303Z,0
2016-08-10T01:32:07.268Z,0
2016-08-10T01:33:08.683Z,0
2016-08-10T01:34:08.725Z,0
2016-08-10T01:35:07.461Z,0
2016-08-10T01:36:06.032Z,0
2016-08-10T01:37:08.771Z,0
2016-08-10T01:38:07.371Z,0
2016-08-10T01:39:08.807Z,0
2016-08-10T01:40:08.132Z,0
2016-08-10T01:41:08.133Z,0
2016-08-10T01:42:08.158Z,0
2016-08-10T01:43:06.836Z,0
2016-08-10T01:44:07.474Z,0
2016-08-10T01:45:08.212Z,0
2016-08-10T01:46:07.560Z,0
2016-08-10T01:47:07.558Z,0
2016-08-10T01:48:07.577Z,0
2016-08-10T01:49:08.291Z,0
2016-08-10T01:50:08.343Z,0
2016-08-10T01:51:06.931Z,0
2016-08-10T01:52:08.366Z,0
2016-08-10T01:53:07.683Z,0
2016-08-10T01:54:08.463Z,0
2016-08-10T01:55:08.405Z,0
2016-08-10T01:56:08.512Z,0
2016-08-10T01:57:09.153Z,0
2016-08-10T01:58:08.497Z,0
2016-08-10T01:59:07.776Z,0
2016-08-10T02:00:07.812Z,0
2016-08-10T02:01:08.613Z,0
2016-08-10T02:02:08.554Z,0
2016-08-10T02:03:08.564Z,0
2016-08-10T02:04:08.593Z,0
2016-08-10T02:05:07.900Z,0
2016-08-10T02:06:07.920Z,0
2016-08-10T02:07:06.529Z,0
2016-08-10T02:08:10.491Z,0
2016-08-10T02:09:08.123Z,0
2016-08-10T02:10:08.684Z,0
2016-08-10T02:11:09.423Z,0
2016-08-10T02:12:08.031Z,0
2016-08-10T02:13:08.750Z,0
2016-08-10T02:14:08.073Z,0
2016-08-10T02:15:08.092Z,0
2016-08-10T02:16:07.494Z,0
2016-08-10T02:17:08.821Z,0
2016-08-10T02:18:08.163Z,0
2016-08-10T02:19:08.872Z,0
2016-08-10T02:20:07.478Z,0
2016-08-10T02:21:08.892Z,0
2016-08-10T02:22:07.533Z,0
2016-08-10T02:23:10.222Z,0
2016-08-10T02:24:08.259Z,0
2016-08-10T02:25:08.273Z,0
2016-08-10T02:26:09.000Z,0
2016-08-10T02:27:08.520Z,0
2016-08-10T02:28:08.341Z,0
2016-08-10T02:29:07.693Z,0
2016-08-10T02:30:09.074Z,0
2016-08-10T02:31:09.156Z,0
2016-08-10T02:32:08.523Z,0
2016-08-10T02:33:07.731Z,0
2016-08-10T02:34:09.156Z,0
2016-08-10T02:35:08.473Z,0
2016-08-10T02:36:09.894Z,0
2016-08-10T02:37:08.523Z,0
2016-08-10T02:38:07.831Z,0
2016-08-10T02:39:08.542Z,0
2016-08-10T02:40:08.589Z,0
2016-08-10T02:41:08.594Z,0
2016-08-10T02:42:08.682Z,0
2016-08-10T02:43:08.634Z,0
2016-08-10T02:44:09.420Z,0
2016-08-10T02:45:08.673Z,0
2016-08-10T02:46:08.815Z,0
2016-08-10T02:47:09.414Z,0
2016-08-10T02:48:08.719Z,0
2016-08-10T02:49:10.133Z,0
2016-08-10T02:50:08.872Z,0
2016-08-10T02:51:08.764Z,0
2016-08-10T02:52:09.510Z,0
2016-08-10T02:53:09.584Z,0
2016-08-10T02:54:08.852Z,0
2016-08-10T02:55:09.768Z,0
2016-08-10T02:56:10.298Z,0
2016-08-10T02:57:08.984Z,0
2016-08-10T02:58:08.916Z,0
2016-08-10T02:59:08.925Z,0
2016-08-10T03:00:09.649Z,0
2016-08-10T03:01:08.254Z,0
2016-08-10T03:02:08.988Z,0
2016-08-10T03:03:09.715Z,0
2016-08-10T03:04:10.464Z,0
2016-08-10T03:05:09.054Z,0
2016-08-10T03:06:08.379Z,0
2016-08-10T03:07:08.454Z,0
2016-08-10T03:08:10.014Z,0
2016-08-10T03:09:09.121Z,0
2016-08-10T03:10:09.149Z,0
2016-08-10T03:11:08.571Z,0
2016-08-10T03:12:09.186Z,0
2016-08-10T03:13:09.913Z,0
2016-08-10T03:14:09.280Z,0
2016-08-10T03:15:10.653Z,0
2016-08-10T03:16:09.953Z,0
2016-08-10T03:17:09.383Z,0
2016-08-10T03:18:10.818Z,0
2016-08-10T03:19:09.312Z,0
2016-08-10T03:20:08.629Z,0
2016-08-10T03:21:09.412Z,0
2016-08-10T03:22:09.367Z,0
2016-08-10T03:23:08.066Z,0
2016-08-10T03:24:10.182Z,0
2016-08-10T03:25:09.434Z,0
2016-08-10T03:26:08.822Z,0
2016-08-10T03:27:09.475Z,0
2016-08-10T03:28:08.081Z,0
2016-08-10T03:29:08.784Z,0
2016-08-10T03:30:10.233Z,0
2016-08-10T03:31:11.062Z,0
2016-08-10T03:32:09.607Z,0
2016-08-10T03:33:08.884Z,0
2016-08-10T03:34:10.419Z,0
2016-08-10T03:35:10.344Z,0
2016-08-10T03:36:10.533Z,0
2016-08-10T03:37:10.366Z,0
2016-08-10T03:38:10.563Z,0
2016-08-10T03:39:09.139Z,0
2016-08-10T03:40:10.576Z,0
2016-08-10T03:41:10.034Z,0
2016-08-10T03:42:10.612Z,0
2016-08-10T03:43:10.491Z,0
2016-08-10T03:44:11.203Z,0
2016-08-10T03:45:09.800Z,0
2016-08-10T03:46:10.654Z,0
2016-08-10T03:47:11.280Z,0
2016-08-10T03:48:09.923Z,0
2016-08-10T03:49:08.463Z,0
2016-08-10T03:50:11.314Z,0
2016-08-10T03:51:09.281Z,0
2016-08-10T03:52:10.673Z,0
2016-08-10T03:53:08.574Z,0
2016-08-10T03:54:10.704Z,0
2016-08-10T03:55:10.011Z,0
2016-08-10T03:56:10.737Z,0
2016-08-10T03:57:10.767Z,5
2016-08-10T03:58:10.813Z,5
2016-08-10T03:59:10.804Z,5
2016-08-10T04:00:10.848Z,5
2016-08-10T04:01:10.822Z,5
2016-08-10T04:02:10.212Z,5
2016-08-10T04:03:11.589Z,5
2016-08-10T04:04:11.615Z,10
2016-08-10T04:05:10.214Z,10
2016-08-10T04:06:08.822Z,10
2016-08-10T04:07:10.964Z,5
2016-08-10T04:08:11.023Z,10
2016-08-10T04:09:09.647Z,5
2016-08-10T04:10:09.602Z,5
2016-08-10T04:11:11.036Z,10
2016-08-10T04:12:10.343Z,10
2016-08-10T04:13:11.096Z,10
2016-08-10T04:14:11.804Z,10
2016-08-10T04:15:11.191Z,15
2016-08-10T04:16:11.115Z,15
2016-08-10T04:17:10.443Z,15
2016-08-10T04:18:09.122Z,15
2016-08-10T04:19:10.472Z,15
2016-08-10T04:20:10.488Z,20
2016-08-10T04:21:10.534Z,20
2016-08-10T04:22:10.634Z,20
2016-08-10T04:23:10.547Z,20
2016-08-10T04:24:11.375Z,25
2016-08-10T04:25:11.325Z,25
2016-08-10T04:26:10.640Z,25
2016-08-10T04:27:11.333Z,25
2016-08-10T04:28:11.444Z,30
2016-08-10T04:29:12.091Z,30
2016-08-10T04:30:11.413Z,35
2016-08-10T04:31:11.434Z,35
2016-08-10T04:32:10.038Z,40
2016-08-10T04:33:11.450Z,45
2016-08-10T04:34:10.061Z,50
2016-08-10T04:35:11.695Z,50
2016-08-10T04:36:11.584Z,55
2016-08-10T04:37:10.944Z,50
2016-08-10T04:38:11.552Z,50
2016-08-10T04:39:12.427Z,50
2016-08-10T04:40:10.886Z,50
2016-08-10T04:41:10.925Z,50
2016-08-10T04:42:10.915Z,50
2016-08-10T04:43:11.673Z,50
2016-08-10T04:44:11.066Z,55
2016-08-10T04:45:11.000Z,55
2016-08-10T04:46:11.727Z,55
2016-08-10T04:47:11.732Z,55
2016-08-10T04:48:11.148Z,55
2016-08-10T04:49:11.777Z,55
2016-08-10T04:50:11.836Z,55
2016-08-10T04:51:11.808Z,60
2016-08-10T04:52:11.132Z,60
2016-08-10T04:53:11.844Z,65
2016-08-10T04:54:11.864Z,70
2016-08-10T04:55:10.544Z,80
2016-08-10T04:56:11.215Z,90
2016-08-10T04:57:12.060Z,95
2016-08-10T04:58:11.243Z,100
2016-08-10T04:59:12.174Z,115
2016-08-10T05:00:12.012Z,120
2016-08-10T05:01:10.605Z,130
2016-08-10T05:02:10.621Z,130
2016-08-10T05:03:12.098Z,130
2016-08-10T05:04:12.772Z,135
2016-08-10T05:05:12.098Z,140
2016-08-10T05:06:10.784Z,140
2016-08-10T05:07:12.142Z,135
2016-08-10T05:08:12.197Z,130
2016-08-10T05:09:11.471Z,120
2016-08-10T05:10:12.903Z,115
2016-08-10T05:11:10.774Z,110
2016-08-10T05:12:12.324Z,105
2016-08-10T05:13:11.545Z,100
2016-08-10T05:14:11.633Z,100
2016-08-10T05:15:10.173Z,100
2016-08-10T05:16:11.584Z,100
2016-08-10T05:17:11.735Z,105
2016-08-10T05:18:11.728Z,105
2016-08-10T05:19:12.363Z,95
2016-08-10T05:20:10.968Z,90
2016-08-10T05:21:13.135Z,90
2016-08-10T05:22:11.014Z,90
2016-08-10T05:23:12.541Z,95
2016-08-10T05:24:11.754Z,100
2016-08-10T05:25:11.859Z,110
2016-08-10T05:26:13.222Z,130
2016-08-10T05:27:12.540Z,135
2016-08-10T05:28:11.836Z,145
2016-08-10T05:29:11.140Z,155
2016-08-10T05:30:11.203Z,170
2016-08-10T05:31:12.626Z,175
2016-08-10T05:32:11.232Z,180
2016-08-10T05:33:13.413Z,190
2016-08-10T05:34:12.689Z,200
2016-08-10T05:35:11.976Z,210
2016-08-10T05:36:12.715Z,220
2016-08-10T05:37:13.425Z,235
2016-08-10T05:38:11.435Z,250
2016-08-10T05:39:12.775Z,265
2016-08-10T05:40:12.071Z,280
2016-08-10T05:41:12.807Z,270
2016-08-10T05:42:13.124Z,260
2016-08-10T05:43:10.733Z,270
2016-08-10T05:44:12.866Z,260
2016-08-10T05:45:12.867Z,275
2016-08-10T05:46:12.924Z,360
2016-08-10T05:47:12.254Z,295
2016-08-10T05:48:12.953Z,480
2016-08-10T05:49:12.334Z,495
2016-08-10T05:50:11.591Z,260
2016-08-10T05:51:13.037Z,265
2016-08-10T05:52:12.324Z,275
2016-08-10T05:53:13.155Z,295
2016-08-10T05:54:12.712Z,270
2016-08-10T05:55:13.204Z,285
2016-08-10T05:56:11.701Z,280
2016-08-10T05:57:12.434Z,275
2016-08-10T05:58:12.559Z,280
2016-08-10T05:59:12.481Z,285
2016-08-10T06:00:12.554Z,290
2016-08-10T06:01:12.527Z,300
2016-08-10T06:02:11.879Z,305
2016-08-10T06:03:13.337Z,310
2016-08-10T06:04:13.354Z,325
2016-08-10T06:05:14.014Z,390
2016-08-10T06:06:13.414Z,320
2016-08-10T06:07:13.337Z,315
2016-08-10T06:08:12.713Z,310
2016-08-10T06:09:13.030Z,530
2016-08-10T06:10:13.544Z,645
2016-08-10T06:11:13.614Z,840
2016-08-10T06:12:12.066Z,1255
2016-08-10T06:13:12.791Z,1140
2016-08-10T06:14:13.643Z,1385
2016-08-10T06:15:13.684Z,1455
2016-08-10T06:16:12.134Z,800
2016-08-10T06:17:13.617Z,1205
2016-08-10T06:18:13.626Z,1375
2016-08-10T06:19:13.759Z,550
2016-08-10T06:20:12.227Z,1015
2016-08-10T06:21:13.673Z,1435
2016-08-10T06:22:14.373Z,1475
2016-08-10T06:23:12.990Z,1450
2016-08-10T06:24:14.003Z,1455
2016-08-10T06:25:14.463Z,1460
2016-08-10T06:26:13.074Z,1450
2016-08-10T06:27:13.793Z,1460
2016-08-10T06:28:13.123Z,1470
2016-08-10T06:29:13.846Z,1515
2016-08-10T06:30:13.889Z,1560
2016-08-10T06:31:13.203Z,1600
2016-08-10T06:32:13.970Z,1540
2016-08-10T06:33:12.574Z,1550
2016-08-10T06:34:13.974Z,1560
2016-08-10T06:35:14.015Z,1565
2016-08-10T06:36:13.333Z,1610
2016-08-10T06:37:14.061Z,1600
2016-08-10T06:38:13.391Z,1610
2016-08-10T06:40:14.836Z,1610
2016-08-10T06:41:14.212Z,1595
2016-08-10T06:42:13.574Z,1630
2016-08-10T06:43:13.523Z,1610
2016-08-10T06:44:14.955Z,1600
2016-08-10T06:45:13.593Z,1620
2016-08-10T06:46:12.923Z,1605
2016-08-10T06:47:13.826Z,1630
2016-08-10T06:48:15.122Z,1670
2016-08-10T06:49:13.261Z,1685
2016-08-10T06:50:14.522Z,1630
2016-08-10T06:51:13.847Z,1570
2016-08-10T06:52:13.809Z,1590
2016-08-10T06:53:13.192Z,1285
2016-08-10T06:55:13.898Z,1665
2016-08-10T06:56:13.921Z,1655
2016-08-10T06:57:14.721Z,1660
2016-08-10T06:58:13.973Z,1760
2016-08-10T06:59:14.022Z,1800
2016-08-10T07:00:14.069Z,1755
2016-08-10T07:01:14.831Z,1795
2016-08-10T07:02:13.485Z,1850
2016-08-10T07:03:13.433Z,450
2016-08-10T07:04:14.166Z,395
2016-08-10T07:05:15.603Z,480
2016-08-10T07:06:14.247Z,1715
2016-08-10T07:07:13.565Z,1760
2016-08-10T07:08:15.101Z,1770
2016-08-10T07:10:15.117Z,430
2016-08-10T07:11:15.811Z,1720
2016-08-10T07:12:15.832Z,475
2016-08-10T07:13:13.746Z,1780
2016-08-10T07:14:14.464Z,1840
2016-08-10T07:15:14.642Z,1385
2016-08-10T07:16:15.215Z,1340
2016-08-10T07:17:16.198Z,1745
2016-08-10T07:18:16.005Z,1715
2016-08-10T07:19:15.349Z,1780
2016-08-10T07:20:14.713Z,1765
2016-08-10T07:21:14.663Z,1725
2016-08-10T07:22:15.411Z,1730
2016-08-10T07:23:14.017Z,1805
2016-08-10T07:24:16.213Z,1830
2016-08-10T07:25:16.321Z,1775
2016-08-10T07:26:14.925Z,1845
2016-08-10T07:27:14.182Z,1870
2016-08-10T07:28:14.958Z,1810
2016-08-10T07:29:14.198Z,1835
2016-08-10T07:30:15.674Z,1885
2016-08-10T07:31:15.682Z,1060
2016-08-10T07:32:14.307Z,865
2016-08-10T07:33:15.045Z,1050
2016-08-10T07:34:16.574Z,1540
2016-08-10T07:35:13.686Z,1435
2016-08-10T07:36:16.551Z,1950
2016-08-10T07:37:15.170Z,2190
2016-08-10T07:38:15.919Z,1615
2016-08-10T07:39:15.952Z,1360
2016-08-10T07:40:15.331Z,840
2016-08-10T07:41:16.761Z,825
2016-08-10T07:42:15.346Z,705
2016-08-10T07:43:16.092Z,650
2016-08-10T07:44:15.394Z,685
2016-08-10T07:45:15.432Z,715
2016-08-10T07:46:14.781Z,880
2016-08-10T07:47:14.861Z,865
2016-08-10T07:48:16.418Z,885
2016-08-10T07:49:15.552Z,1220
2016-08-10T07:50:16.413Z,1105
2016-08-10T07:51:17.017Z,1630
2016-08-10T07:52:15.614Z,1155
2016-08-10T07:53:14.952Z,1915
2016-08-10T07:54:15.680Z,1565
2016-08-10T07:55:16.452Z,1925
2016-08-10T07:56:16.469Z,1755
2016-08-10T07:57:16.491Z,1925
2016-08-10T07:58:16.502Z,1955
2016-08-10T07:59:16.533Z,1980
2016-08-10T08:00:15.846Z,2035
2016-08-10T08:01:14.474Z,1385
2016-08-10T08:02:15.215Z,805
2016-08-10T08:03:15.947Z,665
2016-08-10T08:04:16.702Z,1215
2016-08-10T08:05:17.412Z,660
2016-08-10T08:06:16.102Z,585
2016-08-10T08:07:16.050Z,620
2016-08-10T08:08:16.123Z,655
2016-08-10T08:09:16.114Z,640
2016-08-10T08:10:15.430Z,605
2016-08-10T08:11:16.174Z,505
2016-08-10T08:12:17.021Z,455
2016-08-10T08:13:17.028Z,440
2016-08-10T08:14:16.255Z,430
2016-08-10T08:15:16.543Z,415
2016-08-10T08:16:17.032Z,420
2016-08-10T08:17:17.170Z,430
2016-08-10T08:18:16.536Z,430
2016-08-10T08:19:16.641Z,450
2016-08-10T08:20:17.768Z,440
2016-08-10T08:21:16.444Z,420
2016-08-10T08:22:17.292Z,390
2016-08-10T08:23:17.312Z,385
2016-08-10T08:24:16.786Z,370
2016-08-10T08:25:16.570Z,460
2016-08-10T08:26:16.745Z,425
2016-08-10T08:27:16.604Z,370
2016-08-10T08:28:15.975Z,370
2016-08-10T08:29:17.133Z,410
2016-08-10T08:30:17.897Z,480
2016-08-10T08:31:17.405Z,500
2016-08-10T08:32:18.195Z,455
2016-08-10T08:33:16.051Z,395
2016-08-10T08:34:17.881Z,360
2016-08-10T08:35:17.510Z,325
2016-08-10T08:36:17.954Z,280
2016-08-10T08:37:16.207Z,260
2016-08-10T08:38:17.930Z,255
2016-08-10T08:39:18.312Z,250
2016-08-10T08:40:16.929Z,255
2016-08-10T08:41:18.729Z,270
2016-08-10T08:42:16.344Z,295
2016-08-10T08:43:17.750Z,290
2016-08-10T08:44:16.313Z,280
2016-08-10T08:45:16.346Z,275
2016-08-10T08:46:17.065Z,270
2016-08-10T08:47:17.790Z,275
2016-08-10T08:48:16.500Z,275
2016-08-10T08:49:17.128Z,275
2016-08-10T08:50:17.923Z,275
2016-08-10T08:51:16.453Z,275
2016-08-10T08:52:18.025Z,275
2016-08-10T08:53:17.424Z,275
2016-08-10T08:54:18.663Z,275
2016-08-10T08:55:17.966Z,280
2016-08-10T08:56:18.024Z,290
2016-08-10T08:57:18.011Z,305
2016-08-10T08:58:18.059Z,325
2016-08-10T08:59:18.089Z,350
2016-08-10T09:00:18.103Z,370
2016-08-10T09:01:18.113Z,380
2016-08-10T09:02:18.140Z,380
2016-08-10T09:03:18.297Z,395
2016-08-10T09:04:18.880Z,430
2016-08-10T09:05:18.943Z,445
2016-08-10T09:06:16.197Z,445
2016-08-10T09:07:19.007Z,500
2016-08-10T09:08:18.292Z,485
2016-08-10T09:09:16.891Z,450
2016-08-10T09:10:17.619Z,385
2016-08-10T09:11:16.928Z,370
2016-08-10T09:12:18.432Z,385
2016-08-10T09:13:18.384Z,425
2016-08-10T09:14:19.198Z,490
2016-08-10T09:15:18.443Z,505
2016-08-10T09:16:17.833Z,510
2016-08-10T09:17:19.191Z,535
2016-08-10T09:18:17.807Z,535
2016-08-10T09:19:17.903Z,525
2016-08-10T09:20:17.843Z,480
2016-08-10T09:21:18.699Z,485
2016-08-10T09:22:17.887Z,475
2016-08-10T09:23:18.631Z,460
2016-08-10T09:24:18.637Z,455
2016-08-10T09:25:19.379Z,480
2016-08-10T09:26:18.712Z,495
2016-08-10T09:27:18.082Z,410
2016-08-10T09:28:18.721Z,330
2016-08-10T09:29:18.862Z,295
2016-08-10T09:30:19.500Z,305
2016-08-10T09:31:18.953Z,330
2016-08-10T09:32:18.821Z,380
2016-08-10T09:33:18.854Z,415
2016-08-10T09:34:18.901Z,435
2016-08-10T09:35:19.618Z,455
2016-08-10T09:36:18.316Z,450
2016-08-10T09:37:18.954Z,445
2016-08-10T09:38:18.981Z,450
2016-08-10T09:39:18.987Z,455
2016-08-10T09:40:18.321Z,480
2016-08-10T09:41:19.911Z,490
2016-08-10T09:42:18.369Z,495
2016-08-10T09:43:19.213Z,485
2016-08-10T09:44:17.703Z,460
2016-08-10T09:45:18.523Z,415
2016-08-10T09:46:17.754Z,355
2016-08-10T09:47:19.203Z,340
2016-08-10T09:48:19.204Z,315
2016-08-10T09:49:19.323Z,310
2016-08-10T09:50:18.546Z,305
2016-08-10T09:51:17.914Z,310
2016-08-10T09:52:18.585Z,305
2016-08-10T09:53:18.643Z,295
2016-08-10T09:54:19.450Z,275
2016-08-10T09:55:18.742Z,290
2016-08-10T09:56:18.722Z,290
2016-08-10T09:57:19.424Z,290
2016-08-10T09:58:19.477Z,290
2016-08-10T09:59:18.784Z,290
2016-08-10T10:00:18.811Z,290
2016-08-10T10:01:18.822Z,290
2016-08-10T10:02:20.275Z,290
2016-08-10T10:03:18.874Z,295
2016-08-10T10:04:18.880Z,300
2016-08-10T10:05:19.633Z,310
2016-08-10T10:06:18.934Z,325
2016-08-10T10:07:19.673Z,340
2016-08-10T10:08:18.334Z,355
2016-08-10T10:09:19.126Z,385
2016-08-10T10:10:19.028Z,420
2016-08-10T10:11:18.352Z,460
2016-08-10T10:12:19.061Z,505
2016-08-10T10:13:20.073Z,555
2016-08-10T10:14:19.209Z,580
2016-08-10T10:15:18.427Z,620
2016-08-10T10:16:20.583Z,635
2016-08-10T10:17:19.903Z,645
2016-08-10T10:18:19.194Z,610
2016-08-10T10:19:19.222Z,530
2016-08-10T10:20:19.348Z,405
2016-08-10T10:21:19.271Z,345
2016-08-10T10:22:20.068Z,320
2016-08-10T10:23:20.013Z,295
2016-08-10T10:24:20.043Z,275
2016-08-10T10:25:20.804Z,240
2016-08-10T10:26:19.474Z,210
2016-08-10T10:27:20.154Z,180
2016-08-10T10:28:19.440Z,160
2016-08-10T10:29:18.784Z,140
2016-08-10T10:30:20.883Z,135
2016-08-10T10:31:20.213Z,125
2016-08-10T10:32:20.225Z,120
2016-08-10T10:33:20.974Z,115
2016-08-10T10:34:20.271Z,115
2016-08-10T10:35:20.304Z,115
2016-08-10T10:36:18.923Z,120
2016-08-10T10:37:19.647Z,125
2016-08-10T10:38:20.386Z,130
2016-08-10T10:39:18.964Z,140
2016-08-10T10:40:20.423Z,150
2016-08-10T10:41:19.045Z,175
2016-08-10T10:42:19.043Z,200
2016-08-10T10:43:21.223Z,220
2016-08-10T10:44:20.493Z,240
2016-08-10T10:45:19.892Z,260
2016-08-10T10:46:20.582Z,280
2016-08-10T10:47:20.563Z,310
2016-08-10T10:48:21.387Z,330
2016-08-10T10:49:18.484Z,350
2016-08-10T10:50:20.623Z,380
2016-08-10T10:51:18.627Z,425
2016-08-10T10:52:20.664Z,470
2016-08-10T10:53:21.408Z,500
2016-08-10T10:54:21.434Z,525
2016-08-10T10:55:21.454Z,530
2016-08-10T10:56:21.462Z,530
2016-08-10T10:57:20.774Z,505
2016-08-10T10:58:20.346Z,500
2016-08-10T10:59:20.138Z,485
2016-08-10T11:00:18.810Z,470
2016-08-10T11:01:20.162Z,445
2016-08-10T11:02:20.163Z,420
2016-08-10T11:03:21.604Z,400
2016-08-10T11:04:20.324Z,380
2016-08-10T11:05:20.251Z,355
2016-08-10T11:06:18.855Z,335
2016-08-10T11:07:20.281Z,325
2016-08-10T11:08:20.315Z,315
2016-08-10T11:09:21.795Z,305
2016-08-10T11:10:19.723Z,295
2016-08-10T11:11:21.080Z,285
2016-08-10T11:12:21.103Z,280
2016-08-10T11:13:21.144Z,275
2016-08-10T11:14:21.273Z,270
2016-08-10T11:15:21.886Z,260
2016-08-10T11:16:20.464Z,255
2016-08-10T11:17:21.194Z,260
2016-08-10T11:18:21.212Z,265
2016-08-10T11:19:21.242Z,265
2016-08-10T11:20:21.963Z,270
2016-08-10T11:21:21.402Z,280
2016-08-10T11:22:21.309Z,290
2016-08-10T11:23:22.051Z,290
2016-08-10T11:24:20.645Z,285
2016-08-10T11:25:19.963Z,285
2016-08-10T11:26:21.397Z,285
2016-08-10T11:27:21.428Z,275
2016-08-10T11:28:21.429Z,265
2016-08-10T11:29:21.445Z,265
2016-08-10T11:30:21.469Z,260
2016-08-10T11:31:20.073Z,255
2016-08-10T11:32:21.532Z,250
2016-08-10T11:33:20.822Z,255
2016-08-10T11:34:21.093Z,245
2016-08-10T11:35:20.861Z,240
2016-08-10T11:36:22.424Z,235
2016-08-10T11:37:20.310Z,230
2016-08-10T11:38:20.931Z,230
2016-08-10T11:39:20.987Z,230
2016-08-10T11:41:20.998Z,235
2016-08-10T11:42:20.312Z,235
2016-08-10T11:43:21.757Z,235
2016-08-10T11:44:20.372Z,235
2016-08-10T11:45:21.821Z,235
2016-08-10T11:46:21.134Z,230
2016-08-10T11:47:19.714Z,230
2016-08-10T11:48:21.952Z,230
2016-08-10T11:49:20.567Z,230
2016-08-10T11:50:21.919Z,230
2016-08-10T11:51:21.934Z,230
2016-08-10T11:52:21.949Z,230
2016-08-10T11:53:20.544Z,230
2016-08-10T11:54:21.294Z,235
2016-08-10T11:56:21.376Z,240
2016-08-10T11:57:22.772Z,245
2016-08-10T11:58:22.072Z,245
2016-08-10T11:59:20.682Z,250
2016-08-10T12:00:22.182Z,255
2016-08-10T12:01:21.417Z,265
2016-08-10T12:02:21.459Z,275
2016-08-10T12:03:20.854Z,290
2016-08-10T12:04:21.511Z,300
2016-08-10T12:05:22.223Z,320
2016-08-10T12:06:20.841Z,340
2016-08-10T12:07:21.574Z,355
2016-08-10T12:08:23.051Z,385
2016-08-10T12:09:22.332Z,410
2016-08-10T12:11:21.654Z,460
2016-08-10T12:12:23.101Z,460
2016-08-10T12:13:22.511Z,485
2016-08-10T12:14:23.179Z,505
2016-08-10T12:15:21.732Z,540
2016-08-10T12:16:23.187Z,575
2016-08-10T12:17:23.231Z,600
2016-08-10T12:18:22.523Z,595
2016-08-10T12:19:23.394Z,520
2016-08-10T12:20:22.564Z,465
2016-08-10T12:21:21.187Z,405
2016-08-10T12:22:23.339Z,345
2016-08-10T12:23:21.924Z,350
2016-08-10T12:24:22.303Z,365
2016-08-10T12:26:23.412Z,305
2016-08-10T12:27:22.007Z,260
2016-08-10T12:28:22.041Z,235
2016-08-10T12:29:21.432Z,225
2016-08-10T12:30:22.822Z,225
2016-08-10T12:31:22.849Z,230
2016-08-10T12:32:23.531Z,235
2016-08-10T12:33:22.180Z,240
2016-08-10T12:34:22.170Z,240
2016-08-10T12:35:23.053Z,245
2016-08-10T12:36:23.643Z,245
2016-08-10T12:37:22.976Z,245
2016-08-10T12:38:23.689Z,250
2016-08-10T12:39:23.727Z,255
2016-08-10T12:41:23.828Z,280
2016-08-10T12:42:23.783Z,300
2016-08-10T12:43:23.084Z,325
2016-08-10T12:44:23.154Z,355
2016-08-10T12:45:22.414Z,385
2016-08-10T12:46:23.350Z,415
2016-08-10T12:47:23.174Z,440
2016-08-10T12:48:22.583Z,460
2016-08-10T12:49:23.223Z,480
2016-08-10T12:50:22.534Z,500
2016-08-10T12:51:22.547Z,510
2016-08-10T12:52:22.642Z,535
2016-08-10T12:53:23.318Z,555
2016-08-10T12:54:23.459Z,560
2016-08-10T12:56:22.652Z,550
2016-08-10T12:57:23.432Z,550
2016-08-10T12:58:22.709Z,545
2016-08-10T12:59:22.173Z,545
2016-08-10T13:00:23.477Z,540
2016-08-10T13:01:24.281Z,530
2016-08-10T13:02:24.193Z,510
2016-08-10T13:03:23.704Z,495
2016-08-10T13:04:24.251Z,480
2016-08-10T13:05:23.576Z,465
2016-08-10T13:06:23.670Z,460
2016-08-10T13:07:23.623Z,445
2016-08-10T13:08:23.799Z,435
2016-08-10T13:09:23.675Z,415
2016-08-10T13:11:23.678Z,375
2016-08-10T13:12:23.802Z,360
2016-08-10T13:13:23.044Z,350
2016-08-10T13:14:22.444Z,345
2016-08-10T13:15:23.220Z,345
2016-08-10T13:16:23.129Z,340
2016-08-10T13:17:23.809Z,340
2016-08-10T13:18:24.676Z,340
2016-08-10T13:19:23.184Z,330
2016-08-10T13:20:23.912Z,325
2016-08-10T13:21:23.290Z,315
2016-08-10T13:22:23.953Z,310
2016-08-10T13:23:24.024Z,295
2016-08-10T13:24:24.012Z,290
2016-08-10T13:26:24.041Z,270
2016-08-10T13:27:24.058Z,265
2016-08-10T13:28:24.134Z,260
2016-08-10T13:29:24.123Z,250
2016-08-10T13:30:24.142Z,240
2016-08-10T13:31:24.871Z,235
2016-08-10T13:32:24.180Z,235
2016-08-10T13:33:24.905Z,235
2016-08-10T13:34:24.220Z,240
2016-08-10T13:35:23.762Z,250
2016-08-10T13:36:24.394Z,260
2016-08-10T13:37:22.863Z,270
2016-08-10T13:38:24.302Z,285
2016-08-10T13:39:22.898Z,290
2016-08-10T13:41:23.805Z,280
2016-08-10T13:42:25.112Z,260
2016-08-10T13:43:23.712Z,245
2016-08-10T13:44:24.434Z,235
2016-08-10T13:45:23.823Z,230
2016-08-10T13:46:23.786Z,225
2016-08-10T13:47:25.254Z,225
2016-08-10T13:48:24.504Z,230
2016-08-10T13:49:24.601Z,230
2016-08-10T13:50:23.867Z,230
2016-08-10T13:51:23.908Z,230
2016-08-10T13:52:25.313Z,235
2016-08-10T13:53:24.652Z,235
2016-08-10T13:54:24.044Z,235
2016-08-10T13:56:24.711Z,215
2016-08-10T13:57:25.455Z,250
2016-08-10T13:58:25.692Z,275
2016-08-10T13:59:25.481Z,265
2016-08-10T14:00:24.240Z,265
2016-08-10T14:01:23.707Z,255
2016-08-10T14:02:24.931Z,245
2016-08-10T14:03:24.849Z,215
2016-08-10T14:04:24.893Z,170
2016-08-10T14:05:24.899Z,135
2016-08-10T14:06:24.924Z,110
2016-08-10T14:07:24.237Z,100
2016-08-10T14:08:25.723Z,90
2016-08-10T14:09:25.834Z,85
2016-08-10T14:11:56.435Z,90
2016-08-10T14:12:25.076Z,90
2016-08-10T14:13:25.096Z,95
2016-08-10T14:14:25.194Z,100
2016-08-10T14:15:24.427Z,105
2016-08-10T14:16:24.494Z,110